This is the latest recevied weather packets stored in our database for station/object SQ6XL-13. If no packets are shown the sender has not sent any weather packets the latest 10 day(s).
| Time | Temp. | Humidity | Pressure | Rain* | Wind** | Luminosity | Snow |
|---|---|---|---|---|---|---|---|
| 1777623031 | 15.56° C | 47% | 1028.1 hPa | 0 mm | - | - | - |
| 1777622462 | 16.11° C | 45% | 1028.2 hPa | 0 mm | - | - | - |
| 1777621936 | 17.22° C | 42% | 1028.4 hPa | 0 mm | - | - | - |
| 1777621382 | 16.11° C | 45% | 1028.4 hPa | 0 mm | - | - | - |
| 1777620862 | 16.11° C | 46% | 1028.3 hPa | 0 mm | - | - | - |
| 1777620347 | 15.56° C | 47% | 1028.4 hPa | 0 mm | - | - | - |
| 1777619837 | 15° C | 48% | 1028.4 hPa | 0 mm | - | - | - |
| 1777619242 | 14.44° C | 50% | 1028.4 hPa | 0 mm | - | - | - |
| 1777618747 | 13.33° C | 52% | 1028.2 hPa | 0 mm | - | - | - |
| 1777618175 | 13.33° C | 51% | 1028.3 hPa | 0 mm | - | - | - |
| 1777617607 | 13.33° C | 53% | 1028.3 hPa | 0 mm | - | - | - |
| 1777617091 | 13.33° C | 54% | 1028.4 hPa | 0 mm | - | - | - |
| 1777616571 | 12.78° C | 57% | 1028.3 hPa | 0 mm | - | - | - |
| 1777616067 | 12.22° C | 57% | 1028.2 hPa | 0 mm | - | - | - |
| 1777615527 | 12.22° C | 61% | 1028.1 hPa | 0 mm | - | - | - |
| 1777615047 | 12.22° C | 61% | 1028.1 hPa | 0 mm | - | - | - |
| 1777614511 | 11.67° C | 61% | 1028.1 hPa | 0 mm | - | - | - |
| 1777613917 | 11.11° C | 62% | 1028.2 hPa | 0 mm | - | - | - |
| 1777613352 | 11.11° C | 63% | 1028 hPa | 0 mm | - | - | - |
| 1777612762 | 10.56° C | 64% | 1028 hPa | 0 mm | - | - | - |
| 1777612222 | 10.56° C | 65% | 1028 hPa | 0 mm | - | - | - |
| 1777611632 | 10° C | 66% | 1028.1 hPa | 0 mm | - | - | - |
| 1777611113 | 10° C | 66% | 1028.1 hPa | 0 mm | - | - | - |
| 1777610587 | 10° C | 67% | 1028 hPa | 0 mm | - | - | - |
| 1777610067 | 9.44° C | 67% | 1027.9 hPa | 0 mm | - | - | - |
* Rain latest hour (hover to see other rain measurements)
** Current wind speed in m/s (hover to see current wind gust speed)